Latest Weather Observations for Inner Beacon

IDQ60801

Issued at 2:05 pm EST Wednesday 16 April 2014 (issued every 30 minutes, with the page automatically refreshed every 10 minutes)

About weather observations | Map of weather stations | Latest weather observations for QLD | Other Formats
Station Details ID: 040926 Name: INNER RECIPROCAL MARKER Lat: -27.26 Lon: 153.24 Height: 20.0 m
Data from the previous 72 hours. | See also: Recent months for locations in Queensland
Date/Time
EST
Temp
°C
App
Temp
°C
Dew
Point
Rel
Hum
%
Delta-T
°C
Wind Press
QNH
hPa
Press
MSL
hPa
Rain
since 9 am
mm
Dir
 
Spd
km/h
Gust
km/h
Spd
kts
Gust
kts
16/02:00pm - - - - - E 15 20 8 11 - - -
16/01:30pm - - - - - ENE 6 7 3 4 - - -
16/01:00pm - - - - - E 9 13 5 7 - - -
16/12:30pm - - - - - E 4 6 2 3 - - -
16/12:00pm - - - - - SE 4 6 2 3 - - -
16/11:30am - - - - - S 11 13 6 7 - - -
16/11:00am - - - - - S 11 13 6 7 - - -
16/10:30am - - - - - SSW 9 13 5 7 - - -
16/10:00am - - - - - SSW 11 15 6 8 - - -
16/09:30am - - - - - SSW 17 20 9 11 - - -
16/09:00am - - - - - SSW 20 26 11 14 - - -
16/08:30am - - - - - SSW 20 24 11 13 - - -
16/08:00am - - - - - SSW 22 24 12 13 - - -
16/07:30am - - - - - SW 24 28 13 15 - - -
16/07:00am - - - - - SSW 28 32 15 17 - - -
16/06:30am - - - - - SSW 30 33 16 18 - - -
16/06:00am - - - - - SSW 28 32 15 17 - - -
16/05:30am - - - - - SSW 26 32 14 17 - - -
16/05:00am - - - - - SSW 26 30 14 16 - - -
16/04:30am - - - - - SW 28 33 15 18 - - -
16/04:00am - - - - - SW 26 30 14 16 - - -
16/03:30am - - - - - SW 24 30 13 16 - - -
16/03:00am - - - - - SW 24 30 13 16 - - -
16/02:30am - - - - - SW 24 28 13 15 - - -
16/02:00am - - - - - SW 24 30 13 16 - - -
16/01:30am - - - - - SW 24 30 13 16 - - -
16/01:00am - - - - - SW 24 30 13 16 - - -
16/12:30am - - - - - SW 26 32 14 17 - - -
16/12:00am - - - - - SW 22 24 12 13 - - -
 
Date/Time
EST
Temp
°C
App
Temp
°C
Dew
Point
Rel
Hum
%
Delta-T
°C
Wind Press
QNH
hPa
Press
MSL
hPa
Rain
since 9 am
mm
Dir
 
Spd
km/h
Gust
km/h
Spd
kts
Gust
kts
15/11:30pm - - - - - SW 22 28 12 15 - - -
15/11:00pm - - - - - SSW 26 32 14 17 - - -
15/10:30pm - - - - - SSW 28 33 15 18 - - -
15/10:00pm - - - - - S 30 35 16 19 - - -
15/09:30pm - - - - - S 33 41 18 22 - - -
15/09:00pm - - - - - S 35 43 19 23 - - -
15/08:30pm - - - - - S 39 48 21 26 - - -
15/08:00pm - - - - - S 39 48 21 26 - - -
15/07:30pm - - - - - SSE 37 44 20 24 - - -
15/07:00pm - - - - - SSE 37 43 20 23 - - -
15/06:30pm - - - - - SSE 43 50 23 27 - - -
15/06:00pm - - - - - SSE 39 46 21 25 - - -
15/05:30pm - - - - - SSE 35 43 19 23 - - -
15/05:00pm - - - - - SSE 35 41 19 22 - - -
15/04:30pm - - - - - SSE 33 43 18 23 - - -
15/04:00pm - - - - - SSE 32 35 17 19 - - -
15/03:30pm - - - - - S 32 39 17 21 - - -
15/03:00pm - - - - - SSE 33 41 18 22 - - -
15/02:30pm - - - - - S 35 43 19 23 - - -
15/02:00pm - - - - - S 41 50 22 27 - - -
15/01:30pm - - - - - S 35 43 19 23 - - -
15/01:00pm - - - - - SSE 39 48 21 26 - - -
15/12:30pm - - - - - SSE 35 44 19 24 - - -
15/12:00pm - - - - - SSE 35 43 19 23 - - -
15/11:30am - - - - - SSE 35 43 19 23 - - -
15/11:00am - - - - - S 35 41 19 22 - - -
15/10:30am - - - - - S 35 43 19 23 - - -
15/10:00am - - - - - S 35 44 19 24 - - -
15/09:30am - - - - - S 32 39 17 21 - - -
15/09:00am - - - - - S 35 43 19 23 - - -
15/08:30am - - - - - S 28 41 15 22 - - -
15/08:00am - - - - - SSW 26 33 14 18 - - -
15/07:30am - - - - - SSW 28 33 15 18 - - -
15/07:00am - - - - - SSW 28 33 15 18 - - -
15/06:30am - - - - - SSW 26 35 14 19 - - -
15/06:00am - - - - - SSW 28 35 15 19 - - -
15/05:30am - - - - - S 28 41 15 22 - - -
15/05:00am - - - - - S 35 46 19 25 - - -
15/04:30am - - - - - S 39 50 21 27 - - -
15/04:00am - - - - - S 35 44 19 24 - - -
15/03:30am - - - - - S 39 48 21 26 - - -
15/03:00am - - - - - S 37 46 20 25 - - -
15/02:30am - - - - - S 39 46 21 25 - - -
15/02:00am - - - - - S 37 43 20 23 - - -
15/01:30am - - - - - S 35 50 19 27 - - -
15/01:10am - - - - - S 35 54 19 29 - - -
15/01:00am - - - - - S 32 39 17 21 - - -
15/12:30am - - - - - S 37 46 20 25 - - -
15/12:00am - - - - - S 41 50 22 27 - - -
 
Date/Time
EST
Temp
°C
App
Temp
°C
Dew
Point
Rel
Hum
%
Delta-T
°C
Wind Press
QNH
hPa
Press
MSL
hPa
Rain
since 9 am
mm
Dir
 
Spd
km/h
Gust
km/h
Spd
kts
Gust
kts
14/11:30pm - - - - - S 37 44 20 24 - - -
14/11:00pm - - - - - S 39 46 21 25 - - -
14/10:30pm - - - - - S 39 46 21 25 - - -
14/10:00pm - - - - - S 37 43 20 23 - - -
14/09:30pm - - - - - S 37 43 20 23 - - -
14/09:00pm - - - - - S 33 39 18 21 - - -
14/08:30pm - - - - - S 39 44 21 24 - - -
14/08:00pm - - - - - SSE 50 59 27 32 - - -
14/07:30pm - - - - - SSE 50 59 27 32 - - -
14/07:00pm - - - - - SSE 46 57 25 31 - - -
14/06:30pm - - - - - SSE 48 59 26 32 - - -
14/06:00pm - - - - - SSE 46 56 25 30 - - -
14/05:30pm - - - - - SSE 46 56 25 30 - - -
14/05:00pm - - - - - SSE 48 59 26 32 - - -
14/04:30pm - - - - - SSE 46 57 25 31 - - -
14/04:00pm - - - - - SSE 50 57 27 31 - - -
14/03:30pm - - - - - SE 46 56 25 30 - - -
14/03:00pm - - - - - SE 52 61 28 33 - - -
14/02:30pm - - - - - SE 50 59 27 32 - - -
14/02:00pm - - - - - SE 46 56 25 30 - - -
14/01:30pm - - - - - SE 48 63 26 34 - - -
14/01:22pm - - - - - SE 50 63 27 34 - - -
14/01:00pm - - - - - S 46 57 25 31 - - -
14/12:30pm - - - - - S 48 57 26 31 - - -
14/12:00pm - - - - - S 44 52 24 28 - - -
14/11:30am - - - - - S 44 52 24 28 - - -
14/11:00am - - - - - S 43 52 23 28 - - -
14/10:30am - - - - - S 43 57 23 31 - - -
14/10:00am - - - - - SSE 46 56 25 30 - - -
14/09:30am - - - - - S 46 54 25 29 - - -
14/09:00am - - - - - S 41 48 22 26 - - -
14/08:30am - - - - - S 41 44 22 24 - - -
14/08:00am - - - - - SSE 43 52 23 28 - - -
14/07:30am - - - - - SSE 39 46 21 25 - - -
14/07:00am - - - - - SSE 43 50 23 27 - - -
14/06:30am - - - - - S 43 50 23 27 - - -
14/06:00am - - - - - S 41 48 22 26 - - -
14/05:30am - - - - - S 35 41 19 22 - - -
14/05:00am - - - - - S 37 44 20 24 - - -
14/04:30am - - - - - SSE 33 43 18 23 - - -
14/04:00am - - - - - SE 43 50 23 27 - - -
14/03:30am - - - - - SSE 41 48 22 26 - - -
14/03:00am - - - - - SE 39 46 21 25 - - -
14/02:30am - - - - - SSE 35 43 19 23 - - -
14/02:00am - - - - - SE 35 43 19 23 - - -
14/01:30am - - - - - SE 39 44 21 24 - - -
14/01:00am - - - - - SE 35 43 19 23 - - -
14/12:54am - - - - - SE 32 35 17 19 - - -
14/12:30am - - - - - S 37 43 20 23 - - -
14/12:00am - - - - - S 26 30 14 16 - - -
 
Date/Time
EST
Temp
°C
App
Temp
°C
Dew
Point
Rel
Hum
%
Delta-T
°C
Wind Press
QNH
hPa
Press
MSL
hPa
Rain
since 9 am
mm
Dir
 
Spd
km/h
Gust
km/h
Spd
kts
Gust
kts
13/11:30pm - - - - - SSE 30 33 16 18 - - -
13/11:00pm - - - - - S 30 37 16 20 - - -
13/10:30pm - - - - - S 24 28 13 15 - - -
13/10:00pm - - - - - S 22 32 12 17 - - -
13/09:30pm - - - - - S 26 30 14 16 - - -
13/09:00pm - - - - - S 24 30 13 16 - - -
13/08:30pm - - - - - SE 24 30 13 16 - - -
13/08:00pm - - - - - SE 24 28 13 15 - - -
13/07:30pm - - - - - ESE 20 28 11 15 - - -
13/07:00pm - - - - - SE 24 30 13 16 - - -
13/06:30pm - - - - - SE 28 32 15 17 - - -
13/06:00pm - - - - - SSE 22 26 12 14 - - -
13/05:30pm - - - - - ESE 24 26 13 14 - - -
13/05:00pm - - - - - SE 24 30 13 16 - - -
13/04:30pm - - - - - SSE 22 26 12 14 - - -
13/04:00pm - - - - - SE 28 32 15 17 - - -
13/03:30pm - - - - - SE 24 30 13 16 - - -
13/03:00pm - - - - - SE 28 33 15 18 - - -
13/02:30pm - - - - - ESE 26 30 14 16 - - -

Other Formats:

Comma delimited format used in spreadsheet applications
http://www.bom.gov.au/fwo/IDQ60801/IDQ60801.94590.axf

JavaScript Object Notation format (JSON) in row-major order
http://www.bom.gov.au/fwo/IDQ60801/IDQ60801.94590.json